createdAt,value
2019-05-25T00:00:19.495Z,69.09
2019-05-25T00:02:45.645Z,68.31
2019-05-25T00:05:12.229Z,68.59
2019-05-25T00:07:38.335Z,69.50
2019-05-25T00:10:05.321Z,69.82
2019-05-25T00:12:31.512Z,69.35
2019-05-25T00:14:57.578Z,70.71
2019-05-25T00:17:23.812Z,70.30
2019-05-25T00:19:51.033Z,69.70
2019-05-25T00:22:17.243Z,70.06
2019-05-25T00:24:43.319Z,69.38
2019-05-25T00:27:09.508Z,69.22
2019-05-25T00:29:35.622Z,69.44
2019-05-25T00:32:01.910Z,69.73
2019-05-25T00:34:28.143Z,69.94
2019-05-25T00:36:55.475Z,69.87
2019-05-25T00:39:21.904Z,70.07
2019-05-25T00:41:48.004Z,70.37
2019-05-25T00:44:14.120Z,70.01
2019-05-25T00:46:40.304Z,70.85
2019-05-25T00:49:06.402Z,71.15
2019-05-25T00:51:32.516Z,71.37
2019-05-25T00:53:58.693Z,71.95
2019-05-25T00:56:24.794Z,72.26
2019-05-25T00:58:51.077Z,72.21
2019-05-25T01:01:17.413Z,72.44
2019-05-25T01:03:43.496Z,71.44
2019-05-25T01:06:09.689Z,72.01
2019-05-25T01:08:36.105Z,72.39
2019-05-25T01:11:02.292Z,72.82
2019-05-25T01:13:28.392Z,72.80
2019-05-25T01:15:54.616Z,72.40
2019-05-25T01:18:20.840Z,73.32
2019-05-25T01:20:47.130Z,73.91
2019-05-25T01:23:13.349Z,74.48
2019-05-25T01:25:40.470Z,73.38
2019-05-25T01:28:06.547Z,74.64
2019-05-25T01:30:32.974Z,75.05
2019-05-25T01:32:59.249Z,74.08
2019-05-25T01:35:25.457Z,74.55
2019-05-25T01:37:51.585Z,75.42
2019-05-25T01:40:19.161Z,75.42
2019-05-25T01:42:45.365Z,75.70
2019-05-25T01:45:11.766Z,75.42
2019-05-25T01:47:37.984Z,75.39
2019-05-25T01:50:05.013Z,75.39
2019-05-25T01:52:31.118Z,76.22
2019-05-25T01:55:00.270Z,74.86
2019-05-25T01:57:25.243Z,74.86
2019-05-25T01:59:51.357Z,75.31
2019-05-25T02:02:17.581Z,76.50
2019-05-25T02:04:43.707Z,75.69
2019-05-25T02:07:10.036Z,76.22
2019-05-25T02:09:36.139Z,76.05
2019-05-25T02:12:02.520Z,75.75
2019-05-25T02:14:29.757Z,75.75
2019-05-25T02:16:55.866Z,76.37
2019-05-25T02:19:21.982Z,77.54
2019-05-25T02:21:48.207Z,77.54
2019-05-25T02:24:14.281Z,77.04
2019-05-25T02:26:40.432Z,78.00
2019-05-25T02:29:06.725Z,78.00
2019-05-25T02:31:32.919Z,78.22
2019-05-25T02:33:59.153Z,78.19
2019-05-25T02:36:25.268Z,78.02
2019-05-25T02:38:51.547Z,78.46
2019-05-25T02:41:17.644Z,78.46
2019-05-25T02:43:43.742Z,78.46
2019-05-25T02:46:09.932Z,78.48
2019-05-25T02:48:36.033Z,78.45
2019-05-25T02:51:03.322Z,79.38
2019-05-25T02:53:29.520Z,79.72
2019-05-25T02:55:55.584Z,79.23
2019-05-25T02:58:21.811Z,79.30
2019-05-25T03:00:47.965Z,78.92
2019-05-25T03:03:14.263Z,78.73
2019-05-25T03:05:41.157Z,79.18
2019-05-25T03:08:07.292Z,79.39
2019-05-25T03:10:34.894Z,78.31
2019-05-25T03:13:02.019Z,78.53
2019-05-25T03:15:28.189Z,78.79
2019-05-25T03:17:54.706Z,78.79
2019-05-25T03:20:20.976Z,78.71
2019-05-25T03:22:47.078Z,78.46
2019-05-25T03:25:13.412Z,78.38
2019-05-25T03:27:39.495Z,78.38
2019-05-25T03:30:06.772Z,78.40
2019-05-25T03:32:32.874Z,78.82
2019-05-25T03:34:58.973Z,78.42
2019-05-25T03:37:25.160Z,77.95
2019-05-25T03:39:51.256Z,77.95
2019-05-25T03:42:17.376Z,76.56
2019-05-25T03:44:43.455Z,76.12
2019-05-25T03:47:09.665Z,75.47
2019-05-25T03:49:35.768Z,75.47
2019-05-25T03:52:02.079Z,76.35
2019-05-25T03:54:28.297Z,75.92
2019-05-25T03:56:54.359Z,75.54
2019-05-25T03:59:20.663Z,74.82
2019-05-25T04:01:46.777Z,74.71
2019-05-25T04:04:12.966Z,73.98
2019-05-25T04:06:39.038Z,73.98
2019-05-25T04:09:06.387Z,74.56
2019-05-25T04:11:32.866Z,74.43
2019-05-25T04:13:58.980Z,73.91
2019-05-25T04:16:25.203Z,74.62
2019-05-25T04:18:51.428Z,74.04
2019-05-25T04:21:17.503Z,73.89
2019-05-25T04:23:43.603Z,73.24
2019-05-25T04:26:22.232Z,73.62
2019-05-25T04:28:37.804Z,73.65
2019-05-25T04:31:04.009Z,73.36
2019-05-25T04:33:30.199Z,72.78
2019-05-25T04:35:56.343Z,72.26
2019-05-25T04:38:22.456Z,72.78
2019-05-25T04:40:48.624Z,72.45
2019-05-25T04:43:14.724Z,73.22
2019-05-25T04:45:40.798Z,72.74
2019-05-25T04:48:06.915Z,71.91
2019-05-25T04:50:33.026Z,71.91
2019-05-25T04:53:00.380Z,73.02
2019-05-25T04:55:26.497Z,71.96
2019-05-25T04:57:52.575Z,71.32
2019-05-25T05:00:18.769Z,71.38
2019-05-25T05:02:44.944Z,71.80
2019-05-25T05:05:12.059Z,72.55
2019-05-25T05:07:38.154Z,72.06
2019-05-25T05:10:05.448Z,73.55
2019-05-25T05:12:31.677Z,75.11
2019-05-25T05:14:57.794Z,76.69
2019-05-25T05:17:23.887Z,75.47
2019-05-25T05:19:50.085Z,75.47
2019-05-25T05:22:16.180Z,75.59
2019-05-25T05:24:42.409Z,75.16
2019-05-25T05:27:08.589Z,74.81
2019-05-25T05:29:34.682Z,75.19
2019-05-25T05:32:00.903Z,74.83
2019-05-25T05:34:27.121Z,75.12
2019-05-25T05:36:54.707Z,74.68
2019-05-25T05:39:21.561Z,74.53
2019-05-25T05:41:48.746Z,74.53
2019-05-25T05:44:17.457Z,74.90
2019-05-25T05:46:45.390Z,73.88
2019-05-25T05:49:12.549Z,74.40
2019-05-25T05:51:39.546Z,73.71
2019-05-25T05:54:05.868Z,74.61
2019-05-25T05:56:32.179Z,74.61
2019-05-25T05:58:58.971Z,75.30
2019-05-25T06:01:25.190Z,75.36
2019-05-25T06:03:51.383Z,75.36
2019-05-25T06:06:17.589Z,74.34
2019-05-25T06:08:43.643Z,74.34
2019-05-25T06:11:09.849Z,74.81
2019-05-25T06:13:35.947Z,74.29
2019-05-25T06:16:02.225Z,74.69
2019-05-25T06:18:28.365Z,75.58
2019-05-25T06:20:54.442Z,74.67
2019-05-25T06:23:21.736Z,74.68
2019-05-25T06:25:48.049Z,75.40
2019-05-25T06:28:14.154Z,74.35
2019-05-25T06:30:40.273Z,74.39
2019-05-25T06:33:06.380Z,74.63
2019-05-25T06:35:32.573Z,73.51
2019-05-25T06:37:58.860Z,72.76
2019-05-25T06:40:24.889Z,72.68
2019-05-25T06:42:51.098Z,71.59
2019-05-25T06:45:18.562Z,72.15
2019-05-25T06:47:44.870Z,70.96
2019-05-25T06:50:11.404Z,69.83
2019-05-25T06:52:37.580Z,69.66
2019-05-25T06:55:05.212Z,70.64
2019-05-25T06:57:42.718Z,69.68
2019-05-25T06:59:59.695Z,68.42
2019-05-25T07:02:25.872Z,70.44
2019-05-25T07:04:52.084Z,68.09
2019-05-25T07:07:18.246Z,67.42
2019-05-25T07:09:44.474Z,68.44
2019-05-25T07:12:10.617Z,69.10
2019-05-25T07:14:36.853Z,69.36
2019-05-25T07:17:03.343Z,68.17
2019-05-25T07:19:29.536Z,68.29
2019-05-25T07:21:55.785Z,67.11
2019-05-25T07:24:22.003Z,66.34
2019-05-25T07:26:48.301Z,67.47
2019-05-25T07:29:14.546Z,67.58
2019-05-25T07:31:40.610Z,67.68
2019-05-25T07:34:06.833Z,67.88
2019-05-25T07:36:33.057Z,66.67
2019-05-25T07:38:59.235Z,65.72
2019-05-25T07:41:25.505Z,66.88
2019-05-25T07:43:51.688Z,65.57
2019-05-25T07:46:18.012Z,65.28
2019-05-25T07:48:44.350Z,64.66
2019-05-25T07:51:10.531Z,64.93
2019-05-25T07:53:36.857Z,64.13
2019-05-25T07:56:03.047Z,64.47
2019-05-25T07:58:29.289Z,62.56
2019-05-25T08:00:55.609Z,62.46
2019-05-25T08:03:21.751Z,61.24
2019-05-25T08:05:47.989Z,61.34
2019-05-25T08:08:14.113Z,61.13
2019-05-25T08:10:40.448Z,60.14
2019-05-25T08:13:06.750Z,60.88
2019-05-25T08:15:32.965Z,60.24
2019-05-25T08:17:59.177Z,60.00
2019-05-25T08:20:25.302Z,59.20
2019-05-25T08:22:51.491Z,59.05
2019-05-25T08:25:17.816Z,58.47
2019-05-25T08:27:44.042Z,58.21
2019-05-25T08:30:10.932Z,59.70
2019-05-25T08:32:37.298Z,60.50
2019-05-25T08:35:06.312Z,61.43
2019-05-25T08:37:32.561Z,59.00
2019-05-25T08:39:58.763Z,59.70
2019-05-25T08:42:25.027Z,58.93
2019-05-25T08:44:51.286Z,60.24
2019-05-25T08:47:17.478Z,57.57
2019-05-25T08:49:43.740Z,60.09
2019-05-25T08:52:10.101Z,58.93
2019-05-25T08:54:36.198Z,57.42
2019-05-25T08:57:02.622Z,57.48
2019-05-25T08:59:28.928Z,55.20
2019-05-25T09:01:55.129Z,55.92
2019-05-25T09:04:21.361Z,57.70
2019-05-25T09:06:47.573Z,56.15
2019-05-25T09:09:13.747Z,56.95
2019-05-25T09:11:39.876Z,51.94
2019-05-25T09:14:06.225Z,52.14
2019-05-25T09:16:32.644Z,52.78
2019-05-25T09:18:58.879Z,51.04
2019-05-25T09:21:25.097Z,51.80
2019-05-25T09:23:51.428Z,53.29
2019-05-25T09:26:17.663Z,52.43
2019-05-25T09:28:43.871Z,51.57
2019-05-25T09:31:09.997Z,53.48
2019-05-25T09:33:36.099Z,50.47
2019-05-25T09:36:02.422Z,53.69
2019-05-25T09:38:28.706Z,50.60
2019-05-25T09:40:55.020Z,51.97
2019-05-25T09:43:21.113Z,53.41
2019-05-25T09:45:47.353Z,49.03
2019-05-25T09:48:13.635Z,49.17
2019-05-25T09:50:39.768Z,50.46
2019-05-25T09:53:06.189Z,51.79
2019-05-25T09:55:32.508Z,53.77
2019-05-25T09:57:58.825Z,50.25
2019-05-25T10:00:25.136Z,51.63
2019-05-25T10:02:51.846Z,51.31
2019-05-25T10:05:18.245Z,51.66
2019-05-25T10:07:44.355Z,50.33
2019-05-25T10:10:11.163Z,51.25
2019-05-25T10:12:37.454Z,49.72
2019-05-25T10:15:06.869Z,47.98
2019-05-25T10:17:32.966Z,48.27
2019-05-25T10:19:59.176Z,49.56
2019-05-25T10:22:25.571Z,47.44
2019-05-25T10:24:52.484Z,46.37
2019-05-25T10:27:18.753Z,48.04
2019-05-25T10:29:45.011Z,48.74
2019-05-25T10:32:11.203Z,48.48
2019-05-25T10:34:37.498Z,48.92
2019-05-25T10:37:03.864Z,50.73
2019-05-25T10:39:30.162Z,48.66
2019-05-25T10:41:56.375Z,48.66
2019-05-25T10:44:22.583Z,49.13
2019-05-25T10:46:48.680Z,49.38
2019-05-25T10:49:15.019Z,51.67
2019-05-25T10:51:41.110Z,48.91
2019-05-25T10:54:07.289Z,48.55
2019-05-25T10:56:34.615Z,48.61
2019-05-25T10:59:00.947Z,50.60
2019-05-25T11:01:27.256Z,49.42
2019-05-25T11:03:53.533Z,47.42
2019-05-25T11:06:19.990Z,46.45
2019-05-25T11:08:46.233Z,45.98
2019-05-25T11:11:12.471Z,46.98
2019-05-25T11:13:38.581Z,45.69
2019-05-25T11:16:04.762Z,47.46
2019-05-25T11:18:31.047Z,45.77
2019-05-25T11:20:57.158Z,45.35
2019-05-25T11:23:25.390Z,44.98
2019-05-25T11:25:51.707Z,46.29
2019-05-25T11:28:17.823Z,46.48
2019-05-25T11:30:44.107Z,46.21
2019-05-25T11:33:10.178Z,48.58
2019-05-25T11:35:36.509Z,50.23
2019-05-25T11:38:02.807Z,48.83
2019-05-25T11:40:29.151Z,47.55
2019-05-25T11:42:55.226Z,44.79
2019-05-25T11:45:21.957Z,47.21
2019-05-25T11:47:48.056Z,46.95
2019-05-25T11:50:15.645Z,44.37
2019-05-25T11:52:41.896Z,45.13
2019-05-25T11:55:08.625Z,45.20
2019-05-25T11:57:34.797Z,44.97
2019-05-25T12:00:01.424Z,44.55
2019-05-25T12:02:27.617Z,46.17
2019-05-25T12:04:54.300Z,48.14
2019-05-25T12:07:20.505Z,47.53
2019-05-25T12:09:46.642Z,45.42
2019-05-25T12:12:13.065Z,48.52
2019-05-25T12:14:40.171Z,46.07
2019-05-25T12:17:06.411Z,48.08
2019-05-25T12:19:33.844Z,47.85
2019-05-25T12:22:00.120Z,49.24
2019-05-25T12:24:26.256Z,47.50
2019-05-25T12:26:52.540Z,46.29
2019-05-25T12:29:18.789Z,45.47
2019-05-25T12:31:44.915Z,48.18
2019-05-25T12:34:11.131Z,45.77
2019-05-25T12:36:37.306Z,48.89
2019-05-25T12:39:05.233Z,47.60
2019-05-25T12:41:31.464Z,47.62
2019-05-25T12:43:57.674Z,46.76
2019-05-25T12:46:23.818Z,47.32
2019-05-25T12:48:49.903Z,49.45
2019-05-25T12:51:17.814Z,48.52
2019-05-25T12:53:44.369Z,47.53
2019-05-25T12:56:10.478Z,48.63
2019-05-25T12:58:36.805Z,50.18
2019-05-25T13:01:02.987Z,47.10
2019-05-25T13:03:29.195Z,48.31
2019-05-25T13:05:56.412Z,49.02
2019-05-25T13:08:22.609Z,47.44
2019-05-25T13:10:48.926Z,49.67
2019-05-25T13:13:15.113Z,47.42
2019-05-25T13:15:41.370Z,48.79
2019-05-25T13:18:07.513Z,47.99
2019-05-25T13:20:33.631Z,46.07
2019-05-25T13:22:59.833Z,44.97
2019-05-25T13:25:26.125Z,45.34
2019-05-25T13:27:52.311Z,47.84
2019-05-25T13:30:18.808Z,43.56
2019-05-25T13:32:45.153Z,43.31
2019-05-25T13:35:13.002Z,43.60
2019-05-25T13:37:39.328Z,43.87
2019-05-25T13:40:06.041Z,43.60
2019-05-25T13:42:32.224Z,47.17
2019-05-25T13:44:58.634Z,46.77
2019-05-25T13:47:24.736Z,47.41
2019-05-25T13:49:50.937Z,47.71
2019-05-25T13:52:17.154Z,46.55
2019-05-25T13:54:43.358Z,47.59
2019-05-25T13:57:09.518Z,47.71
2019-05-25T13:59:35.697Z,47.69
2019-05-25T14:02:02.027Z,47.09
2019-05-25T14:04:28.234Z,45.91
2019-05-25T14:06:54.440Z,48.45
2019-05-25T14:09:20.755Z,45.59
2019-05-25T14:11:47.005Z,46.94
2019-05-25T14:14:13.113Z,46.29
2019-05-25T14:16:39.386Z,46.36
2019-05-25T14:19:05.729Z,49.29
2019-05-25T14:21:31.808Z,47.55
2019-05-25T14:23:58.058Z,46.81
2019-05-25T14:26:24.546Z,47.27
2019-05-25T14:28:50.612Z,46.20
2019-05-25T14:31:16.826Z,47.55
2019-05-25T14:33:42.967Z,45.69
2019-05-25T14:36:09.106Z,46.12
2019-05-25T14:38:35.200Z,46.09
2019-05-25T14:41:01.416Z,45.47
2019-05-25T14:43:27.525Z,46.84
2019-05-25T14:45:53.715Z,45.56
2019-05-25T14:48:20.059Z,45.32
2019-05-25T14:50:46.273Z,47.69
2019-05-25T14:53:12.709Z,45.31
2019-05-25T14:55:39.084Z,46.98
2019-05-25T14:58:05.194Z,46.59
2019-05-25T15:00:31.463Z,44.13
2019-05-25T15:02:57.680Z,46.57
2019-05-25T15:05:23.883Z,44.39
2019-05-25T15:07:50.416Z,45.51
2019-05-25T15:10:16.809Z,46.79
2019-05-25T15:12:43.009Z,46.41
2019-05-25T15:15:09.528Z,45.05
2019-05-25T15:17:37.458Z,45.11
2019-05-25T15:20:08.504Z,45.33
2019-05-25T15:22:34.802Z,44.80
2019-05-25T15:25:01.114Z,46.89
2019-05-25T15:27:27.247Z,48.11
2019-05-25T15:29:53.648Z,46.69
2019-05-25T15:32:20.772Z,47.14
2019-05-25T15:34:47.242Z,46.61
2019-05-25T15:37:13.344Z,45.38
2019-05-25T15:39:39.579Z,46.35
2019-05-25T15:42:05.894Z,46.69
2019-05-25T15:44:32.178Z,45.50
2019-05-25T15:46:58.366Z,44.46
2019-05-25T15:49:32.918Z,46.22
2019-05-25T15:51:53.058Z,45.54
2019-05-25T15:54:19.217Z,46.28
2019-05-25T15:56:45.455Z,45.34
2019-05-25T15:59:12.772Z,46.04
2019-05-25T16:01:39.036Z,46.28
2019-05-25T16:04:05.361Z,46.58
2019-05-25T16:06:33.437Z,46.13
2019-05-25T16:09:00.929Z,46.73
2019-05-25T16:11:27.162Z,46.64
2019-05-25T16:13:53.367Z,45.37
2019-05-25T16:16:19.551Z,47.94
2019-05-25T16:18:45.795Z,45.96
2019-05-25T16:21:12.167Z,46.48
2019-05-25T16:23:38.361Z,47.39
2019-05-25T16:26:04.604Z,46.47
2019-05-25T16:28:30.725Z,45.34
2019-05-25T16:30:57.014Z,44.88
2019-05-25T16:33:23.232Z,45.56
2019-05-25T16:35:49.461Z,45.59
2019-05-25T16:38:15.768Z,46.73
2019-05-25T16:40:41.987Z,44.78
2019-05-25T16:43:08.061Z,45.69
2019-05-25T16:45:34.404Z,45.30
2019-05-25T16:48:01.258Z,45.44
2019-05-25T16:50:27.494Z,45.66
2019-05-25T16:52:54.115Z,45.73
2019-05-25T16:55:20.376Z,44.61
2019-05-25T16:57:46.818Z,46.12
2019-05-25T17:00:15.223Z,47.74
2019-05-25T17:02:41.717Z,45.16
2019-05-25T17:05:08.175Z,45.59
2019-05-25T17:07:34.632Z,43.74
2019-05-25T17:10:00.835Z,43.53
2019-05-25T17:12:26.975Z,44.66
2019-05-25T17:14:53.193Z,44.31
2019-05-25T17:17:19.314Z,45.00
2019-05-25T17:19:45.617Z,45.42
2019-05-25T17:22:11.741Z,44.44
2019-05-25T17:24:38.063Z,44.66
2019-05-25T17:27:04.429Z,43.65
2019-05-25T17:29:30.549Z,44.36
2019-05-25T17:31:56.826Z,45.15
2019-05-25T17:34:23.138Z,45.85
2019-05-25T17:36:49.490Z,44.09
2019-05-25T17:39:15.658Z,44.56
2019-05-25T17:41:41.808Z,44.45
2019-05-25T17:44:08.161Z,43.75
2019-05-25T17:46:34.652Z,44.90
2019-05-25T17:49:00.945Z,45.15
2019-05-25T17:51:27.434Z,46.60
2019-05-25T17:53:53.813Z,45.64
2019-05-25T17:56:20.315Z,44.83
2019-05-25T17:58:46.684Z,45.18
2019-05-25T18:01:12.821Z,44.16
2019-05-25T18:03:39.104Z,44.88
2019-05-25T18:06:05.454Z,46.21
2019-05-25T18:08:31.692Z,46.58
2019-05-25T18:10:57.909Z,45.95
2019-05-25T18:13:24.385Z,47.42
2019-05-25T18:15:50.908Z,47.64
2019-05-25T18:18:17.476Z,48.94
2019-05-25T18:20:43.695Z,50.01
2019-05-25T18:23:10.232Z,48.94
2019-05-25T18:25:36.733Z,49.81
2019-05-25T18:28:03.522Z,48.74
2019-05-25T18:30:31.733Z,48.43
2019-05-25T18:32:58.021Z,48.30
2019-05-25T18:35:24.361Z,51.04
2019-05-25T18:37:50.696Z,47.51
2019-05-25T18:40:17.207Z,47.72
2019-05-25T18:42:43.437Z,49.94
2019-05-25T18:45:09.793Z,51.68
2019-05-25T18:47:36.082Z,50.37
2019-05-25T18:50:08.159Z,50.09
2019-05-25T18:52:34.672Z,49.93
2019-05-25T18:55:01.127Z,48.61
2019-05-25T18:57:27.269Z,48.85
2019-05-25T18:59:53.387Z,47.67
2019-05-25T19:02:23.396Z,47.59
2019-05-25T19:04:58.954Z,49.90
2019-05-25T19:07:18.068Z,48.82
2019-05-25T19:09:44.533Z,48.85
2019-05-25T19:12:10.823Z,48.58
2019-05-25T19:14:37.203Z,50.24
2019-05-25T19:17:03.591Z,51.33
2019-05-25T19:19:29.911Z,55.67
2019-05-25T19:21:56.143Z,54.50
2019-05-25T19:24:22.358Z,54.67
2019-05-25T19:26:48.648Z,57.80
2019-05-25T19:29:14.781Z,57.49
2019-05-25T19:31:41.191Z,58.55
2019-05-25T19:34:07.588Z,59.67
2019-05-25T19:36:34.031Z,60.41
2019-05-25T19:39:00.390Z,57.80
2019-05-25T19:41:26.631Z,60.49
2019-05-25T19:43:52.771Z,56.01
2019-05-25T19:46:18.988Z,58.07
2019-05-25T19:48:45.439Z,60.04
2019-05-25T19:51:11.956Z,57.86
2019-05-25T19:53:38.294Z,58.01
2019-05-25T19:56:04.611Z,57.92
2019-05-25T19:58:30.957Z,58.85
2019-05-25T20:00:57.211Z,58.40
2019-05-25T20:03:23.668Z,58.34
2019-05-25T20:05:49.985Z,60.13
2019-05-25T20:08:16.228Z,60.35
2019-05-25T20:10:42.467Z,61.80
2019-05-25T20:13:08.578Z,63.38
2019-05-25T20:15:34.713Z,63.19
2019-05-25T20:18:01.011Z,65.62
2019-05-25T20:20:28.522Z,66.30
2019-05-25T20:22:54.952Z,66.38
2019-05-25T20:25:21.374Z,65.40
2019-05-25T20:27:47.502Z,65.19
2019-05-25T20:30:13.830Z,65.34
2019-05-25T20:32:40.201Z,63.74
2019-05-25T20:35:07.614Z,65.03
2019-05-25T20:37:33.843Z,64.58
2019-05-25T20:40:00.115Z,63.43
2019-05-25T20:42:26.420Z,64.54
2019-05-25T20:44:52.766Z,66.57
2019-05-25T20:47:18.966Z,67.43
2019-05-25T20:49:46.261Z,68.92
2019-05-25T20:52:12.439Z,66.75
2019-05-25T20:54:38.738Z,65.89
2019-05-25T20:57:05.201Z,67.62
2019-05-25T20:59:31.688Z,67.72
2019-05-25T21:01:58.098Z,68.71
2019-05-25T21:04:24.338Z,66.87
2019-05-25T21:06:50.600Z,67.11
2019-05-25T21:09:17.008Z,65.59
2019-05-25T21:11:43.257Z,67.67
2019-05-25T21:14:09.493Z,68.99
2019-05-25T21:16:35.875Z,66.73
2019-05-25T21:19:03.216Z,66.17
2019-05-25T21:21:29.361Z,67.88
2019-05-25T21:23:55.612Z,68.76
2019-05-25T21:26:21.814Z,68.27
2019-05-25T21:28:48.182Z,68.61
2019-05-25T21:31:14.421Z,69.27
2019-05-25T21:33:40.654Z,70.18
2019-05-25T21:36:09.216Z,71.14
2019-05-25T21:38:35.249Z,70.01
2019-05-25T21:41:01.635Z,70.15
2019-05-25T21:43:28.016Z,70.52
2019-05-25T21:45:54.138Z,69.75
2019-05-25T21:48:20.563Z,69.95
2019-05-25T21:50:46.728Z,70.22
2019-05-25T21:53:13.012Z,69.79
2019-05-25T21:55:40.233Z,70.33
2019-05-25T21:58:06.506Z,71.13
2019-05-25T22:00:34.494Z,70.77
2019-05-25T22:03:01.063Z,69.85
2019-05-25T22:05:30.621Z,69.61
2019-05-25T22:07:55.780Z,69.09
2019-05-25T22:10:22.180Z,69.25
2019-05-25T22:12:48.564Z,68.89
2019-05-25T22:15:15.249Z,69.80
2019-05-25T22:17:41.510Z,70.33
2019-05-25T22:20:08.258Z,71.10
2019-05-25T22:22:34.466Z,71.17
2019-05-25T22:25:04.291Z,71.39
2019-05-25T22:27:30.438Z,71.16
2019-05-25T22:29:56.746Z,71.08
2019-05-25T22:32:23.029Z,71.34
2019-05-25T22:34:49.163Z,72.11
2019-05-25T22:37:15.279Z,72.65
2019-05-25T22:39:41.600Z,72.65
2019-05-25T22:42:07.825Z,72.79
2019-05-25T22:44:33.959Z,72.99
2019-05-25T22:47:00.139Z,72.38
2019-05-25T22:49:26.273Z,72.84
2019-05-25T22:51:52.392Z,74.58
2019-05-25T22:54:18.896Z,74.42
2019-05-25T22:56:45.290Z,73.74
2019-05-25T22:59:11.823Z,74.02
2019-05-25T23:01:38.241Z,73.18
2019-05-25T23:04:04.575Z,73.18
2019-05-25T23:06:30.800Z,74.50
2019-05-25T23:08:57.023Z,74.50
2019-05-25T23:11:23.477Z,75.91
2019-05-25T23:13:49.823Z,75.44
2019-05-25T23:16:15.926Z,75.13
2019-05-25T23:18:42.194Z,76.24
2019-05-25T23:21:08.517Z,76.24
2019-05-25T23:23:34.767Z,76.51
2019-05-25T23:26:00.913Z,75.69
2019-05-25T23:28:27.103Z,75.69
2019-05-25T23:30:53.409Z,75.65
2019-05-25T23:33:19.608Z,76.10
2019-05-25T23:35:45.873Z,76.22
2019-05-25T23:38:12.114Z,75.94
2019-05-25T23:40:38.200Z,77.10
2019-05-25T23:43:04.430Z,76.57
2019-05-25T23:45:30.661Z,77.01
2019-05-25T23:47:56.764Z,76.38
2019-05-25T23:50:23.194Z,77.01
2019-05-25T23:52:49.686Z,77.80
2019-05-25T23:55:16.356Z,77.80
2019-05-25T23:57:42.590Z,75.88
